createdAt,value
2023-02-02T00:01:55.975Z,8.58
2023-02-02T00:04:25.719Z,8.57
2023-02-02T00:06:53.938Z,8.57
2023-02-02T00:09:23.036Z,8.57
2023-02-02T00:11:51.601Z,8.56
2023-02-02T00:14:20.143Z,8.56
2023-02-02T00:16:49.067Z,8.56
2023-02-02T00:19:18.657Z,8.56
2023-02-02T00:21:47.048Z,8.55
2023-02-02T00:24:18.983Z,8.57
2023-02-02T00:26:50.060Z,8.56
2023-02-02T00:29:19.202Z,8.57
2023-02-02T00:31:47.283Z,8.57
2023-02-02T00:34:16.093Z,8.56
2023-02-02T00:36:44.584Z,8.56
2023-02-02T00:39:15.982Z,8.56
2023-02-02T00:41:43.808Z,8.56
2023-02-02T00:44:30.555Z,8.56
2023-02-02T00:46:58.258Z,8.56
2023-02-02T00:49:26.102Z,8.57
2023-02-02T00:51:53.839Z,8.59
2023-02-02T00:54:21.546Z,8.58
2023-02-02T00:56:49.252Z,8.59
2023-02-02T00:59:18.399Z,8.59
2023-02-02T01:01:46.191Z,8.60
2023-02-02T01:04:13.913Z,8.60
2023-02-02T01:06:42.182Z,8.60
2023-02-02T01:09:10.070Z,8.59
2023-02-02T01:11:37.838Z,8.59
2023-02-02T01:14:05.835Z,8.59
2023-02-02T01:16:35.067Z,8.59
2023-02-02T01:19:03.166Z,8.57
2023-02-02T01:21:31.015Z,8.60
2023-02-02T01:23:58.913Z,8.58
2023-02-02T01:26:26.688Z,8.60
2023-02-02T01:28:54.393Z,8.60
2023-02-02T01:31:22.300Z,8.59
2023-02-02T01:33:52.164Z,8.58
2023-02-02T01:36:21.937Z,8.57
2023-02-02T01:38:50.867Z,8.58
2023-02-02T01:41:21.389Z,8.58
2023-02-02T01:43:55.326Z,8.59
2023-02-02T01:46:25.050Z,8.59
2023-02-02T01:49:00.967Z,8.58
2023-02-02T01:51:35.864Z,8.59
2023-02-02T01:54:06.404Z,8.57
2023-02-02T01:56:38.543Z,8.57
2023-02-02T01:59:07.753Z,8.57
2023-02-02T02:01:35.502Z,8.57
2023-02-02T02:04:04.797Z,8.57
2023-02-02T02:06:32.662Z,8.56
2023-02-02T02:09:03.792Z,8.56
2023-02-02T02:11:32.571Z,8.56
2023-02-02T02:14:20.437Z,8.55
2023-02-02T02:16:59.202Z,8.55
2023-02-02T02:20:16.991Z,8.56
2023-02-02T02:23:21.964Z,8.55
2023-02-02T02:26:27.091Z,8.57
2023-02-02T02:29:27.027Z,8.55
2023-02-02T02:32:15.248Z,8.55
2023-02-02T02:34:56.185Z,8.55
2023-02-02T02:37:34.648Z,8.54
2023-02-02T02:40:10.579Z,8.56
2023-02-02T02:42:43.064Z,8.57
2023-02-02T02:45:14.080Z,8.55
2023-02-02T02:47:44.663Z,8.56
2023-02-02T02:50:12.760Z,8.56
2023-02-02T02:52:41.909Z,8.57
2023-02-02T02:55:12.741Z,8.56
2023-02-02T02:58:00.162Z,8.57
2023-02-02T03:00:41.555Z,8.56
2023-02-02T03:03:20.728Z,8.56
2023-02-02T03:05:56.072Z,8.54
2023-02-02T03:08:29.298Z,8.55
2023-02-02T03:10:59.003Z,8.55
2023-02-02T03:13:28.026Z,8.54
2023-02-02T03:15:56.544Z,8.54
2023-02-02T03:18:28.739Z,8.54
2023-02-02T03:20:57.293Z,8.54
2023-02-02T03:23:25.325Z,8.53
2023-02-02T03:25:53.161Z,8.54
2023-02-02T03:28:24.090Z,8.53
2023-02-02T03:30:53.105Z,8.52
2023-02-02T03:33:20.840Z,8.52
2023-02-02T03:35:49.907Z,8.53
2023-02-02T03:38:17.674Z,8.54
2023-02-02T03:40:45.654Z,8.54
2023-02-02T03:43:13.344Z,8.52
2023-02-02T03:45:41.449Z,8.54
2023-02-02T03:48:09.146Z,8.53
2023-02-02T03:50:38.318Z,8.54
2023-02-02T03:53:07.413Z,8.52
2023-02-02T03:55:35.356Z,8.51
2023-02-02T03:58:03.084Z,8.53
2023-02-02T04:00:30.864Z,8.53
2023-02-02T04:02:58.635Z,8.54
2023-02-02T04:05:27.868Z,8.53
2023-02-02T04:07:55.684Z,8.52
2023-02-02T04:10:24.757Z,8.53
2023-02-02T04:12:52.515Z,8.51
2023-02-02T04:15:20.182Z,8.51
2023-02-02T04:17:47.887Z,8.50
2023-02-02T04:20:15.651Z,8.51
2023-02-02T04:22:43.342Z,8.50
2023-02-02T04:25:11.022Z,8.50
2023-02-02T04:27:40.060Z,8.51
2023-02-02T04:30:08.962Z,8.51
2023-02-02T04:32:36.739Z,8.50
2023-02-02T04:35:04.785Z,8.50
2023-02-02T04:37:33.131Z,8.50
2023-02-02T04:40:00.853Z,8.52
2023-02-02T04:42:28.570Z,8.51
2023-02-02T04:44:57.658Z,8.51
2023-02-02T04:47:25.698Z,8.52
2023-02-02T04:49:53.376Z,8.53
2023-02-02T04:52:21.055Z,8.53
2023-02-02T04:54:48.761Z,8.53
2023-02-02T04:57:17.658Z,8.54
2023-02-02T04:59:45.415Z,8.52
2023-02-02T05:02:14.472Z,8.53
2023-02-02T05:04:42.233Z,8.51
2023-02-02T05:07:10.055Z,8.52
2023-02-02T05:09:37.772Z,8.50
2023-02-02T05:12:06.127Z,8.51
2023-02-02T05:14:33.815Z,8.52
2023-02-02T05:17:01.579Z,8.52
2023-02-02T05:19:30.652Z,8.52
2023-02-02T05:21:58.359Z,8.51
2023-02-02T05:24:27.602Z,8.52
2023-02-02T05:26:58.671Z,8.52
2023-02-02T05:29:26.422Z,8.52
2023-02-02T05:31:54.163Z,8.49
2023-02-02T05:34:22.359Z,8.50
2023-02-02T05:36:51.469Z,8.50
2023-02-02T05:39:19.268Z,8.51
2023-02-02T05:41:46.997Z,8.50
2023-02-02T05:44:16.918Z,8.51
2023-02-02T05:46:45.619Z,8.51
2023-02-02T05:49:14.527Z,8.50
2023-02-02T05:51:45.986Z,8.51
2023-02-02T05:54:19.345Z,8.51
2023-02-02T05:56:47.348Z,8.50
2023-02-02T05:59:15.175Z,8.48
2023-02-02T06:01:42.919Z,8.51
2023-02-02T06:04:10.740Z,8.50
2023-02-02T06:06:39.138Z,8.51
2023-02-02T06:09:07.593Z,8.48
2023-02-02T06:11:37.113Z,8.52
2023-02-02T06:14:04.941Z,8.51
2023-02-02T06:16:32.709Z,8.51
2023-02-02T06:19:00.500Z,8.51
2023-02-02T06:21:31.121Z,8.50
2023-02-02T06:23:59.740Z,8.51
2023-02-02T06:26:27.552Z,8.51
2023-02-02T06:28:56.736Z,8.49
2023-02-02T06:31:25.159Z,8.50
2023-02-02T06:33:57.918Z,8.51
2023-02-02T06:36:27.392Z,8.52
2023-02-02T06:38:57.229Z,8.53
2023-02-02T06:41:25.552Z,8.54
2023-02-02T06:43:53.541Z,8.51
2023-02-02T06:46:22.720Z,8.52
2023-02-02T06:48:50.391Z,8.51
2023-02-02T06:51:18.203Z,8.53
2023-02-02T06:53:48.744Z,8.53
2023-02-02T06:56:17.097Z,8.52
2023-02-02T06:58:44.852Z,8.51
2023-02-02T07:01:13.956Z,8.51
2023-02-02T07:03:43.072Z,8.50
2023-02-02T07:06:15.144Z,8.51
2023-02-02T07:08:43.574Z,8.51
2023-02-02T07:11:15.454Z,8.52
2023-02-02T07:13:44.290Z,8.54
2023-02-02T07:16:12.903Z,8.54
2023-02-02T07:18:40.664Z,8.53
2023-02-02T07:21:10.641Z,8.57
2023-02-02T07:23:38.339Z,8.39
2023-02-02T07:26:08.696Z,8.53
2023-02-02T07:28:36.596Z,8.53
2023-02-02T07:31:14.998Z,8.53
2023-02-02T07:33:43.254Z,8.48
2023-02-02T07:36:12.720Z,8.54
2023-02-02T07:38:40.436Z,8.53
2023-02-02T07:41:08.206Z,8.51
2023-02-02T07:43:35.906Z,8.51
2023-02-02T07:46:06.575Z,8.55
2023-02-02T07:48:34.631Z,8.53
2023-02-02T07:51:02.771Z,8.52
2023-02-02T07:53:32.388Z,8.50
2023-02-02T07:56:08.882Z,8.50
2023-02-02T07:58:36.993Z,8.50
2023-02-02T08:01:06.266Z,8.48
2023-02-02T08:03:34.245Z,8.46
2023-02-02T08:06:02.156Z,8.51
2023-02-02T08:08:31.231Z,8.51
2023-02-02T08:10:58.928Z,8.50
2023-02-02T08:13:26.693Z,8.49
2023-02-02T08:15:54.449Z,8.50
2023-02-02T08:18:22.197Z,8.49
2023-02-02T08:20:49.889Z,8.48
2023-02-02T08:23:18.619Z,8.50
2023-02-02T08:25:47.672Z,8.48
2023-02-02T08:28:15.340Z,8.49
2023-02-02T08:30:43.136Z,8.49
2023-02-02T08:33:10.901Z,8.49
2023-02-02T08:35:42.141Z,8.50
2023-02-02T08:38:10.008Z,8.50
2023-02-02T08:40:37.840Z,8.51
2023-02-02T08:43:06.915Z,8.52
2023-02-02T08:46:04.448Z,8.51
2023-02-02T08:48:26.124Z,8.52
2023-02-02T08:50:55.163Z,8.53
2023-02-02T08:53:23.466Z,8.54
2023-02-02T08:55:59.672Z,8.52
2023-02-02T08:58:29.241Z,8.54
2023-02-02T09:01:05.766Z,8.53
2023-02-02T09:03:33.670Z,8.59
2023-02-02T09:06:05.198Z,8.69
2023-02-02T09:08:33.467Z,8.86
2023-02-02T09:11:05.690Z,8.98
2023-02-02T09:13:34.882Z,9.15
2023-02-02T09:16:02.997Z,9.31
2023-02-02T09:18:31.032Z,9.38
2023-02-02T09:21:01.633Z,9.53
2023-02-02T09:23:31.128Z,9.67
2023-02-02T09:25:59.015Z,9.78
2023-02-02T09:28:26.700Z,9.86
2023-02-02T09:30:55.819Z,9.84
2023-02-02T09:33:24.194Z,9.87
2023-02-02T09:35:51.939Z,9.90
2023-02-02T09:38:19.630Z,9.95
2023-02-02T09:40:47.469Z,10.04
2023-02-02T09:43:29.104Z,9.94
2023-02-02T09:46:06.414Z,9.87
2023-02-02T09:48:40.330Z,9.87
2023-02-02T09:51:14.212Z,9.91
2023-02-02T09:53:55.267Z,10.00
2023-02-02T09:56:27.651Z,10.11
2023-02-02T09:59:06.909Z,10.15
2023-02-02T10:01:45.822Z,10.22
2023-02-02T10:04:19.842Z,10.30
2023-02-02T10:06:50.080Z,10.33
2023-02-02T10:09:31.028Z,10.40
2023-02-02T10:12:06.017Z,10.38
2023-02-02T10:14:39.837Z,10.33
2023-02-02T10:17:28.797Z,10.19
2023-02-02T10:20:03.641Z,10.04
2023-02-02T10:22:35.257Z,9.89
2023-02-02T10:25:03.128Z,9.79
2023-02-02T10:27:38.548Z,9.68
2023-02-02T10:30:17.278Z,9.59
2023-02-02T10:32:50.713Z,9.52
2023-02-02T10:35:31.274Z,9.47
2023-02-02T10:38:07.442Z,9.59
2023-02-02T10:40:46.708Z,9.77
2023-02-02T10:43:47.708Z,9.96
2023-02-02T10:46:21.148Z,10.08
2023-02-02T10:48:52.854Z,10.28
2023-02-02T10:51:24.397Z,10.41
2023-02-02T10:53:54.447Z,10.46
2023-02-02T10:56:26.541Z,10.38
2023-02-02T10:59:03.165Z,10.23
2023-02-02T11:01:31.040Z,10.07
2023-02-02T11:04:17.686Z,9.96
2023-02-02T11:06:52.185Z,9.86
2023-02-02T11:09:23.189Z,9.76
2023-02-02T11:11:55.665Z,9.71
2023-02-02T11:14:33.665Z,9.65
2023-02-02T11:17:05.147Z,9.55
2023-02-02T11:19:36.235Z,9.56
2023-02-02T11:22:05.925Z,9.53
2023-02-02T11:24:41.087Z,9.48
2023-02-02T11:27:15.216Z,9.43
2023-02-02T11:29:46.325Z,9.39
2023-02-02T11:32:26.541Z,9.34
2023-02-02T11:35:15.715Z,9.36
2023-02-02T11:37:57.793Z,9.31
2023-02-02T11:40:31.598Z,9.29
2023-02-02T11:43:01.632Z,9.29
2023-02-02T11:45:35.416Z,9.35
2023-02-02T11:48:07.440Z,9.53
2023-02-02T11:50:36.816Z,9.69
2023-02-02T11:53:04.942Z,9.82
2023-02-02T11:55:33.480Z,9.97
2023-02-02T11:58:43.253Z,10.15
2023-02-02T12:01:24.079Z,10.33
2023-02-02T12:03:54.881Z,10.43
2023-02-02T12:06:26.480Z,10.57
2023-02-02T12:08:58.295Z,10.68
2023-02-02T12:11:44.864Z,10.65
2023-02-02T12:14:32.708Z,10.51
2023-02-02T12:17:12.847Z,10.33
2023-02-02T12:20:05.939Z,10.15
2023-02-02T12:22:57.400Z,9.99
2023-02-02T12:25:43.757Z,9.92
2023-02-02T12:28:22.536Z,9.86
2023-02-02T12:30:59.178Z,9.82
2023-02-02T12:33:36.042Z,9.77
2023-02-02T12:36:18.730Z,9.71
2023-02-02T12:39:02.401Z,9.68
2023-02-02T12:41:48.945Z,9.57
2023-02-02T12:44:23.528Z,9.60
2023-02-02T12:47:02.659Z,9.59
2023-02-02T12:50:00.592Z,9.56
2023-02-02T12:52:35.147Z,9.53
2023-02-02T12:55:17.803Z,9.50
2023-02-02T12:57:57.607Z,9.49
2023-02-02T13:00:44.899Z,9.50
2023-02-02T13:03:30.088Z,9.47
2023-02-02T13:06:14.231Z,9.45
2023-02-02T13:08:51.932Z,9.44
2023-02-02T13:11:32.784Z,9.43
2023-02-02T13:14:09.123Z,9.43
2023-02-02T13:16:40.978Z,9.43
2023-02-02T13:19:13.485Z,9.53
2023-02-02T13:21:44.158Z,9.67
2023-02-02T13:24:19.383Z,9.85
2023-02-02T13:26:50.002Z,10.01
2023-02-02T13:29:28.523Z,10.19
2023-02-02T13:32:02.387Z,10.32
2023-02-02T13:34:41.395Z,10.54
2023-02-02T13:37:17.245Z,10.65
2023-02-02T13:39:49.430Z,10.80
2023-02-02T13:42:29.796Z,10.78
2023-02-02T13:45:02.985Z,10.69
2023-02-02T13:47:39.548Z,10.55
2023-02-02T13:50:15.020Z,10.35
2023-02-02T13:53:05.052Z,10.21
2023-02-02T13:55:54.677Z,10.08
2023-02-02T13:58:53.590Z,10.00
2023-02-02T14:01:22.960Z,9.96
2023-02-02T14:03:55.201Z,9.90
2023-02-02T14:06:24.974Z,9.86
2023-02-02T14:08:56.726Z,9.82
2023-02-02T14:11:28.333Z,9.77
2023-02-02T14:14:18.314Z,9.72
2023-02-02T14:16:50.260Z,9.70
2023-02-02T14:19:41.991Z,9.64
2023-02-02T14:22:37.344Z,9.65
2023-02-02T14:25:25.895Z,9.64
2023-02-02T14:27:59.772Z,9.62
2023-02-02T14:30:35.888Z,9.60
2023-02-02T14:33:26.783Z,9.58
2023-02-02T14:36:02.727Z,9.57
2023-02-02T14:39:04.953Z,9.56
2023-02-02T14:42:07.205Z,9.54
2023-02-02T14:44:37.970Z,9.52
2023-02-02T14:47:48.294Z,9.52
2023-02-02T14:50:19.331Z,9.60
2023-02-02T14:52:59.938Z,9.75
2023-02-02T14:55:29.111Z,9.79
2023-02-02T14:57:59.094Z,9.83
2023-02-02T15:00:32.215Z,9.90
2023-02-02T15:03:37.478Z,10.03
2023-02-02T15:06:09.451Z,10.19
2023-02-02T15:08:37.315Z,10.34
2023-02-02T15:11:27.770Z,10.47
2023-02-02T15:14:07.186Z,10.60
2023-02-02T15:16:39.511Z,10.76
2023-02-02T15:19:14.782Z,10.80
2023-02-02T15:21:44.328Z,10.73
2023-02-02T15:24:23.549Z,10.57
2023-02-02T15:26:53.617Z,10.38
2023-02-02T15:29:31.448Z,10.27
2023-02-02T15:32:01.592Z,10.16
2023-02-02T15:34:40.026Z,10.08
2023-02-02T15:37:12.631Z,10.03
2023-02-02T15:39:43.584Z,9.97
2023-02-02T15:42:35.808Z,9.90
2023-02-02T15:45:03.607Z,9.84
2023-02-02T15:47:36.004Z,9.76
2023-02-02T15:50:17.777Z,9.72
2023-02-02T15:52:48.227Z,9.68
2023-02-02T15:55:22.784Z,9.65
2023-02-02T15:57:54.083Z,9.63
2023-02-02T16:00:28.262Z,9.62
2023-02-02T16:03:03.510Z,9.51
2023-02-02T16:05:47.555Z,9.50
2023-02-02T16:08:19.401Z,9.48
2023-02-02T16:10:48.918Z,9.46
2023-02-02T16:13:24.880Z,9.46
2023-02-02T16:15:57.035Z,9.45
2023-02-02T16:18:26.173Z,9.44
2023-02-02T16:20:55.712Z,9.46
2023-02-02T16:23:28.948Z,9.46
2023-02-02T16:25:59.856Z,9.45
2023-02-02T16:28:28.141Z,9.43
2023-02-02T16:30:56.920Z,9.44
2023-02-02T16:33:37.610Z,9.42
2023-02-02T16:36:24.402Z,9.42
2023-02-02T16:38:53.120Z,9.42
2023-02-02T16:41:29.967Z,9.41
2023-02-02T16:43:57.570Z,9.42
2023-02-02T16:46:44.446Z,9.41
2023-02-02T16:49:19.649Z,9.41
2023-02-02T16:51:48.528Z,9.42
2023-02-02T16:54:21.323Z,9.40
2023-02-02T16:56:52.041Z,9.41
2023-02-02T16:59:24.388Z,9.41
2023-02-02T17:01:55.703Z,9.41
2023-02-02T17:04:27.884Z,9.38
2023-02-02T17:06:58.086Z,9.41
2023-02-02T17:09:35.603Z,9.40
2023-02-02T17:12:14.298Z,9.40
2023-02-02T17:14:53.724Z,9.40
2023-02-02T17:17:21.724Z,9.38
2023-02-02T17:19:50.975Z,9.35
2023-02-02T17:22:22.017Z,9.39
2023-02-02T17:24:52.298Z,9.39
2023-02-02T17:27:26.955Z,9.41
2023-02-02T17:29:55.252Z,9.42
2023-02-02T17:32:23.727Z,9.42
2023-02-02T17:34:52.775Z,9.41
2023-02-02T17:37:20.448Z,9.51
2023-02-02T17:39:48.488Z,9.62
2023-02-02T17:42:24.003Z,9.78
2023-02-02T17:44:51.764Z,9.95
2023-02-02T17:47:19.607Z,10.15
2023-02-02T17:49:47.313Z,10.33
2023-02-02T17:52:16.425Z,10.36
2023-02-02T17:54:44.138Z,10.35
2023-02-02T17:57:11.888Z,10.29
2023-02-02T17:59:39.610Z,10.17
2023-02-02T18:02:07.444Z,10.07
2023-02-02T18:04:35.178Z,9.99
2023-02-02T18:07:03.706Z,9.91
2023-02-02T18:09:34.247Z,9.86
2023-02-02T18:12:02.092Z,9.83
2023-02-02T18:14:29.932Z,9.81
2023-02-02T18:16:57.664Z,9.69
2023-02-02T18:19:25.509Z,9.74
2023-02-02T18:21:53.275Z,9.70
2023-02-02T18:24:20.975Z,9.70
2023-02-02T18:26:50.111Z,9.71
2023-02-02T18:29:17.837Z,9.72
2023-02-02T18:31:45.702Z,9.73
2023-02-02T18:34:13.693Z,9.72
2023-02-02T18:36:41.462Z,9.73
2023-02-02T18:39:09.952Z,9.72
2023-02-02T18:41:37.672Z,9.69
2023-02-02T18:44:06.779Z,9.68
2023-02-02T18:46:34.661Z,9.68
2023-02-02T18:49:02.417Z,9.69
2023-02-02T18:51:31.594Z,9.86
2023-02-02T18:54:00.426Z,9.98
2023-02-02T18:56:28.935Z,10.19
2023-02-02T18:58:57.161Z,10.38
2023-02-02T19:01:26.597Z,10.52
2023-02-02T19:03:57.092Z,10.71
2023-02-02T19:06:43.482Z,10.86
2023-02-02T19:09:13.606Z,10.88
2023-02-02T19:11:44.903Z,10.82
2023-02-02T19:14:15.295Z,10.68
2023-02-02T19:16:45.414Z,10.53
2023-02-02T19:19:21.447Z,10.42
2023-02-02T19:21:49.390Z,10.31
2023-02-02T19:24:17.087Z,10.24
2023-02-02T19:26:49.347Z,10.16
2023-02-02T19:29:20.127Z,10.12
2023-02-02T19:31:52.754Z,10.07
2023-02-02T19:34:23.387Z,10.03
2023-02-02T19:36:52.230Z,10.00
2023-02-02T19:39:21.937Z,9.94
2023-02-02T19:41:49.783Z,9.91
2023-02-02T19:44:20.401Z,9.85
2023-02-02T19:46:51.348Z,9.86
2023-02-02T19:49:27.099Z,9.83
2023-02-02T19:51:56.774Z,9.82
2023-02-02T19:54:30.844Z,9.78
2023-02-02T19:57:00.667Z,9.77
2023-02-02T19:59:34.298Z,9.75
2023-02-02T20:02:23.990Z,9.73
2023-02-02T20:04:59.731Z,9.72
2023-02-02T20:07:27.649Z,9.70
2023-02-02T20:09:57.133Z,9.68
2023-02-02T20:12:32.701Z,9.67
2023-02-02T20:15:00.422Z,9.67
2023-02-02T20:17:34.457Z,9.66
2023-02-02T20:20:04.736Z,9.65
2023-02-02T20:22:33.509Z,9.66
2023-02-02T20:25:08.435Z,9.64
2023-02-02T20:27:36.257Z,9.64
2023-02-02T20:30:19.671Z,9.59
2023-02-02T20:32:52.091Z,9.61
2023-02-02T20:35:35.351Z,9.60
2023-02-02T20:38:03.713Z,9.59
2023-02-02T20:40:31.810Z,9.60
2023-02-02T20:42:59.514Z,9.59
2023-02-02T20:45:27.817Z,9.59
2023-02-02T20:47:56.935Z,9.60
2023-02-02T20:50:25.414Z,9.59
2023-02-02T20:52:54.037Z,9.56
2023-02-02T20:55:21.818Z,9.54
2023-02-02T20:57:49.588Z,9.56
2023-02-02T21:00:21.314Z,9.56
2023-02-02T21:02:49.201Z,9.55
2023-02-02T21:05:18.391Z,9.55
2023-02-02T21:07:46.115Z,9.54
2023-02-02T21:10:13.877Z,9.54
2023-02-02T21:12:41.571Z,9.54
2023-02-02T21:15:10.543Z,9.53
2023-02-02T21:17:40.376Z,9.53
2023-02-02T21:20:11.156Z,9.52
2023-02-02T21:22:40.335Z,9.53
2023-02-02T21:25:08.816Z,9.53
2023-02-02T21:27:37.644Z,9.52
2023-02-02T21:30:06.162Z,9.52
2023-02-02T21:32:34.487Z,9.50
2023-02-02T21:35:02.213Z,9.54
2023-02-02T21:37:29.931Z,9.56
2023-02-02T21:40:00.453Z,9.57
2023-02-02T21:42:32.074Z,9.56
2023-02-02T21:45:09.326Z,9.55
2023-02-02T21:47:41.225Z,9.54
2023-02-02T21:50:16.541Z,9.52
2023-02-02T21:52:44.346Z,9.52
2023-02-02T21:55:34.623Z,9.51
2023-02-02T21:58:15.338Z,9.50
2023-02-02T22:00:43.103Z,9.51
2023-02-02T22:03:26.867Z,9.50
2023-02-02T22:06:00.513Z,9.49
2023-02-02T22:08:28.246Z,9.50
2023-02-02T22:10:57.291Z,9.49
2023-02-02T22:13:26.616Z,9.50
2023-02-02T22:15:54.387Z,9.50
2023-02-02T22:18:24.346Z,9.51
2023-02-02T22:20:54.437Z,9.51
2023-02-02T22:23:23.396Z,9.51
2023-02-02T22:25:53.985Z,9.51
2023-02-02T22:28:26.071Z,9.50
2023-02-02T22:30:55.186Z,9.48
2023-02-02T22:33:26.284Z,9.50
2023-02-02T22:35:54.353Z,9.49
2023-02-02T22:38:24.521Z,9.49
2023-02-02T22:40:53.290Z,9.49
2023-02-02T22:43:22.934Z,9.51
2023-02-02T22:45:50.605Z,9.51
2023-02-02T22:48:18.825Z,9.51
2023-02-02T22:50:47.182Z,9.50
2023-02-02T22:53:15.620Z,9.50
2023-02-02T22:55:43.980Z,9.50
2023-02-02T22:58:11.753Z,9.49
2023-02-02T23:00:40.849Z,9.48
2023-02-02T23:03:08.772Z,9.50
2023-02-02T23:05:36.707Z,9.49
2023-02-02T23:08:04.445Z,9.48
2023-02-02T23:10:35.705Z,9.49
2023-02-02T23:13:05.855Z,9.49
2023-02-02T23:15:34.710Z,9.46
2023-02-02T23:18:05.156Z,9.46
2023-02-02T23:20:32.970Z,9.45
2023-02-02T23:23:00.671Z,9.46
2023-02-02T23:25:28.464Z,9.46
2023-02-02T23:27:56.184Z,9.45
2023-02-02T23:30:24.534Z,9.46
2023-02-02T23:32:52.989Z,9.45
2023-02-02T23:35:22.222Z,9.47
2023-02-02T23:37:50.019Z,9.45
2023-02-02T23:40:17.910Z,9.45
2023-02-02T23:42:45.648Z,9.45
2023-02-02T23:45:16.125Z,9.43
2023-02-02T23:47:44.370Z,9.44
2023-02-02T23:50:13.268Z,9.45
2023-02-02T23:52:42.462Z,9.42
2023-02-02T23:55:11.123Z,9.43
2023-02-02T23:57:39.201Z,9.43
